createdAt,value
2023-04-08T00:03:50.410Z,8.64
2023-04-08T00:08:55.512Z,8.62
2023-04-08T00:13:59.270Z,8.61
2023-04-08T00:19:03.054Z,8.62
2023-04-08T00:24:08.316Z,8.65
2023-04-08T00:29:12.048Z,8.65
2023-04-08T00:34:16.401Z,8.67
2023-04-08T00:39:21.557Z,8.67
2023-04-08T00:44:25.375Z,8.69
2023-04-08T00:49:29.213Z,8.71
2023-04-08T00:54:34.381Z,8.73
2023-04-08T00:59:38.709Z,8.72
2023-04-08T01:04:53.920Z,8.73
2023-04-08T01:10:03.975Z,8.74
2023-04-08T01:15:09.904Z,8.75
2023-04-08T01:20:16.673Z,8.75
2023-04-08T01:25:24.762Z,8.75
2023-04-08T01:30:31.503Z,8.69
2023-04-08T01:35:36.646Z,8.71
2023-04-08T01:40:42.124Z,8.74
2023-04-08T01:45:49.110Z,8.73
2023-04-08T01:50:54.059Z,8.78
2023-04-08T01:56:02.706Z,8.75
2023-04-08T02:01:12.461Z,8.60
2023-04-08T02:06:16.391Z,8.62
2023-04-08T02:11:21.288Z,8.62
2023-04-08T02:16:34.900Z,8.63
2023-04-08T02:21:44.212Z,8.56
2023-04-08T02:26:50.545Z,8.54
2023-04-08T02:31:56.600Z,8.61
2023-04-08T02:37:00.569Z,8.63
2023-04-08T02:42:05.627Z,8.64
2023-04-08T02:47:10.741Z,8.65
2023-04-08T02:52:14.505Z,8.66
2023-04-08T02:57:18.537Z,8.69
2023-04-08T03:02:23.662Z,8.70
2023-04-08T03:07:27.493Z,8.67
2023-04-08T03:12:31.762Z,8.66
2023-04-08T03:17:36.787Z,8.69
2023-04-08T03:22:40.507Z,8.72
2023-04-08T03:27:44.175Z,8.68
2023-04-08T03:32:49.453Z,8.71
2023-04-08T03:37:54.552Z,8.73
2023-04-08T03:42:58.324Z,8.75
2023-04-08T03:48:03.401Z,8.76
2023-04-08T03:53:07.133Z,8.75
2023-04-08T03:58:10.875Z,8.76
2023-04-08T04:03:16.154Z,8.76
2023-04-08T04:08:19.957Z,8.70
2023-04-08T04:13:23.644Z,8.72
2023-04-08T04:18:28.730Z,8.74
2023-04-08T04:23:32.557Z,8.73
2023-04-08T04:28:36.279Z,8.73
2023-04-08T04:33:41.323Z,8.69
2023-04-08T04:38:45.481Z,8.72
2023-04-08T04:43:49.181Z,8.67
2023-04-08T04:48:54.228Z,8.69
2023-04-08T04:53:57.972Z,8.72
2023-04-08T04:59:01.648Z,8.69
2023-04-08T05:04:06.754Z,8.73
2023-04-08T05:09:10.465Z,8.73
2023-04-08T05:14:14.268Z,8.72
2023-04-08T05:19:19.332Z,8.66
2023-04-08T05:24:23.075Z,8.69
2023-04-08T05:29:27.911Z,8.63
2023-04-08T05:34:33.895Z,8.64
2023-04-08T05:39:37.732Z,8.64
2023-04-08T05:44:43.903Z,8.66
2023-04-08T05:49:50.216Z,8.68
2023-04-08T05:54:55.002Z,8.68
2023-04-08T05:59:58.920Z,8.67
2023-04-08T06:05:04.819Z,8.70
2023-04-08T06:10:09.917Z,8.76
2023-04-08T06:15:13.824Z,8.79
2023-04-08T06:20:18.972Z,8.82
2023-04-08T06:25:23.083Z,8.84
2023-04-08T06:30:26.834Z,8.81
2023-04-08T06:35:32.599Z,8.90
2023-04-08T06:40:36.524Z,8.91
2023-04-08T06:45:40.331Z,8.93
2023-04-08T06:50:45.547Z,9.06
2023-04-08T06:55:49.269Z,9.18
2023-04-08T07:00:55.356Z,9.30
2023-04-08T07:06:00.425Z,9.34
2023-04-08T07:11:04.248Z,9.40
2023-04-08T07:16:08.295Z,9.49
2023-04-08T07:21:13.353Z,9.58
2023-04-08T07:26:17.144Z,9.61
2023-04-08T07:31:21.031Z,9.62
2023-04-08T07:36:26.506Z,9.63
2023-04-08T07:41:30.268Z,9.69
2023-04-08T07:46:38.232Z,9.75
2023-04-08T07:51:43.384Z,9.78
2023-04-08T07:56:47.183Z,9.88
2023-04-08T08:01:51.322Z,9.86
2023-04-08T08:06:56.566Z,9.90
2023-04-08T08:12:00.369Z,9.92
2023-04-08T08:17:04.987Z,9.74
2023-04-08T08:22:10.026Z,9.88
2023-04-08T08:27:13.870Z,9.90
2023-04-08T08:32:17.781Z,10.04
2023-04-08T08:37:22.857Z,10.18
2023-04-08T08:42:27.502Z,10.24
2023-04-08T08:47:32.390Z,10.20
2023-04-08T08:52:37.622Z,10.19
2023-04-08T08:57:41.433Z,10.24
2023-04-08T09:02:45.776Z,10.13
2023-04-08T09:07:51.100Z,10.30
2023-04-08T09:12:56.733Z,10.42
2023-04-08T09:18:00.541Z,10.36
2023-04-08T09:23:05.710Z,10.43
2023-04-08T09:28:21.090Z,10.45
2023-04-08T09:33:31.817Z,10.42
2023-04-08T09:38:37.037Z,10.45
2023-04-08T09:43:44.075Z,10.47
2023-04-08T09:48:54.566Z,10.60
2023-04-08T09:54:03.747Z,10.52
2023-04-08T09:59:12.999Z,10.53
2023-04-08T10:04:21.012Z,10.59
2023-04-08T10:09:28.424Z,10.74
2023-04-08T10:14:32.645Z,10.81
2023-04-08T10:19:41.697Z,10.98
2023-04-08T10:25:23.789Z,11.07
2023-04-08T10:30:43.896Z,11.00
2023-04-08T10:35:50.133Z,11.29
2023-04-08T10:40:55.790Z,11.35
2023-04-08T10:45:59.739Z,12.15
2023-04-08T10:51:05.156Z,13.08
2023-04-08T10:56:13.318Z,14.69
2023-04-08T11:01:17.489Z,15.22
2023-04-08T11:06:22.108Z,15.85
2023-04-08T11:11:29.511Z,16.64
2023-04-08T11:16:33.759Z,17.09
2023-04-08T11:21:38.690Z,17.34
2023-04-08T11:26:44.342Z,18.08
2023-04-08T11:31:49.619Z,18.76
2023-04-08T11:36:53.746Z,19.23
2023-04-08T11:41:58.908Z,19.90
2023-04-08T11:47:03.069Z,20.25
2023-04-08T11:52:07.548Z,20.62
2023-04-08T11:57:12.892Z,20.74
2023-04-08T12:02:17.205Z,21.15
2023-04-08T12:07:21.501Z,21.77
2023-04-08T12:12:26.693Z,21.97
2023-04-08T12:17:30.730Z,22.58
2023-04-08T12:22:34.516Z,23.09
2023-04-08T12:27:39.649Z,22.93
2023-04-08T12:32:45.877Z,22.76
2023-04-08T12:37:49.731Z,23.34
2023-04-08T12:42:54.832Z,23.56
2023-04-08T12:47:58.583Z,23.78
2023-04-08T12:53:02.372Z,24.03
2023-04-08T12:58:07.499Z,24.93
2023-04-08T13:03:11.262Z,24.57
2023-04-08T13:08:16.078Z,24.80
2023-04-08T13:13:21.188Z,24.92
2023-04-08T13:18:25.077Z,25.10
2023-04-08T13:23:28.819Z,25.20
2023-04-08T13:28:38.672Z,25.41
2023-04-08T13:33:47.527Z,25.80
2023-04-08T13:38:52.068Z,25.94
2023-04-08T13:43:57.619Z,26.26
2023-04-08T13:49:01.443Z,26.62
2023-04-08T13:54:05.222Z,26.67
2023-04-08T13:59:10.717Z,26.52
2023-04-08T14:04:14.489Z,26.49
2023-04-08T14:09:18.598Z,26.22
2023-04-08T14:14:23.727Z,26.20
2023-04-08T14:19:27.582Z,26.20
2023-04-08T14:24:31.292Z,26.08
2023-04-08T14:29:36.687Z,24.74
2023-04-08T14:34:40.426Z,24.37
2023-04-08T14:39:44.158Z,23.45
2023-04-08T14:44:49.298Z,22.76
2023-04-08T14:49:52.963Z,22.26
2023-04-08T14:54:56.751Z,21.58
2023-04-08T15:00:01.910Z,21.34
2023-04-08T15:05:06.347Z,21.01
2023-04-08T15:10:10.896Z,21.59
2023-04-08T15:15:16.220Z,22.11
2023-04-08T15:20:20.226Z,23.17
2023-04-08T15:25:24.135Z,23.73
2023-04-08T15:30:35.030Z,24.18
2023-04-08T15:35:39.383Z,23.96
2023-04-08T15:40:44.700Z,24.04
2023-04-08T15:45:50.611Z,23.27
2023-04-08T15:50:54.453Z,22.77
2023-04-08T15:55:58.330Z,21.70
2023-04-08T16:01:03.450Z,22.05
2023-04-08T16:06:07.287Z,21.44
2023-04-08T16:11:11.445Z,20.66
2023-04-08T16:16:16.550Z,20.19
2023-04-08T16:21:20.475Z,20.04
2023-04-08T16:26:27.386Z,19.80
2023-04-08T16:31:32.822Z,19.30
2023-04-08T16:36:36.817Z,19.33
2023-04-08T16:41:40.554Z,19.29
2023-04-08T16:46:45.783Z,18.99
2023-04-08T16:51:49.793Z,18.88
2023-04-08T16:56:53.594Z,18.78
2023-04-08T17:01:58.671Z,18.60
2023-04-08T17:07:03.357Z,18.60
2023-04-08T17:12:07.121Z,18.42
2023-04-08T17:17:12.211Z,18.14
2023-04-08T17:22:16.395Z,18.06
2023-04-08T17:27:20.197Z,17.80
2023-04-08T17:32:25.772Z,17.61
2023-04-08T17:37:29.487Z,17.42
2023-04-08T17:42:33.178Z,17.38
2023-04-08T17:47:38.258Z,17.16
2023-04-08T17:52:43.965Z,17.10
2023-04-08T17:57:49.674Z,16.97
2023-04-08T18:02:54.830Z,16.64
2023-04-08T18:07:59.328Z,16.50
2023-04-08T18:18:11.106Z,15.96
2023-04-08T18:23:14.864Z,15.89
2023-04-08T18:28:18.604Z,15.68
2023-04-08T18:33:23.640Z,15.43
2023-04-08T18:38:27.408Z,15.26
2023-04-08T18:43:31.170Z,15.00
2023-04-08T18:48:36.276Z,14.85
2023-04-08T18:53:40.065Z,14.68
2023-04-08T18:58:44.553Z,14.52
2023-04-08T19:03:50.026Z,14.37
2023-04-08T19:08:54.006Z,14.27
2023-04-08T19:13:57.918Z,14.10
2023-04-08T19:19:03.229Z,13.99
2023-04-08T19:24:07.109Z,13.83
2023-04-08T19:29:11.935Z,13.75
2023-04-08T19:34:17.019Z,13.65
2023-04-08T19:39:21.029Z,13.51
2023-04-08T19:44:24.689Z,13.41
2023-04-08T19:49:29.719Z,13.26
2023-04-08T19:54:33.467Z,13.16
2023-04-08T19:59:37.305Z,13.09
2023-04-08T20:04:42.561Z,12.98
2023-04-08T20:09:46.458Z,12.94
2023-04-08T20:14:50.257Z,12.69
2023-04-08T20:19:55.671Z,12.68
2023-04-08T20:25:00.229Z,12.60
2023-04-08T20:30:04.300Z,12.52
2023-04-08T20:35:09.812Z,12.48
2023-04-08T20:40:14.687Z,12.28
2023-04-08T20:45:19.259Z,12.20
2023-04-08T20:50:24.660Z,12.12
2023-04-08T20:55:28.417Z,12.01
2023-04-08T21:00:32.253Z,11.84
2023-04-08T21:05:39.070Z,11.79
2023-04-08T21:10:43.071Z,11.74
2023-04-08T21:15:46.965Z,11.65
2023-04-08T21:20:52.040Z,11.58
2023-04-08T21:25:56.004Z,11.71
2023-04-08T21:31:08.699Z,11.74
2023-04-08T21:36:14.029Z,11.82
2023-04-08T21:41:18.183Z,11.84
2023-04-08T21:46:22.036Z,11.86
2023-04-08T21:51:27.553Z,11.85
2023-04-08T21:56:31.304Z,11.83
2023-04-08T22:01:35.116Z,11.80
2023-04-08T22:06:41.038Z,11.74
2023-04-08T22:11:44.751Z,11.73
2023-04-08T22:16:48.477Z,11.67
2023-04-08T22:21:53.717Z,11.70
2023-04-08T22:26:57.524Z,11.70
2023-04-08T22:32:01.414Z,11.68
2023-04-08T22:37:06.598Z,11.62
2023-04-08T22:42:10.398Z,11.65
2023-04-08T22:47:14.156Z,11.67
2023-04-08T22:52:19.236Z,11.64
2023-04-08T22:57:23.042Z,11.58
2023-04-08T23:02:26.938Z,11.60
2023-04-08T23:07:32.060Z,11.60
2023-04-08T23:12:35.914Z,11.59
2023-04-08T23:17:39.661Z,11.46
2023-04-08T23:22:44.747Z,11.48
2023-04-08T23:27:48.484Z,11.53
2023-04-08T23:32:52.269Z,11.52
2023-04-08T23:37:57.541Z,11.50
2023-04-08T23:43:01.248Z,11.43
2023-04-08T23:48:07.806Z,11.44
2023-04-08T23:53:14.494Z,11.36
2023-04-08T23:58:18.125Z,11.30
